sensor_id;sensor_type;location;lat;lon;timestamp;pressure;altitude;pressure_sealevel;temperature;humidity
62926;BME280;55732;52.248;-0.844;2023-03-21T00:00:28;100301.30;;;9.89;90.06
62926;BME280;55732;52.248;-0.844;2023-03-21T00:02:54;100296.90;;;9.88;89.98
62926;BME280;55732;52.248;-0.844;2023-03-21T00:05:20;100294.44;;;9.87;90.01
62926;BME280;55732;52.248;-0.844;2023-03-21T00:07:46;100294.44;;;9.86;90.09
62926;BME280;55732;52.248;-0.844;2023-03-21T00:10:12;100291.10;;;9.86;90.07
62926;BME280;55732;52.248;-0.844;2023-03-21T00:12:37;100280.73;;;9.81;89.97
62926;BME280;55732;52.248;-0.844;2023-03-21T00:15:07;100282.48;;;9.86;89.95
62926;BME280;55732;52.248;-0.844;2023-03-21T00:17:33;100281.95;;;9.86;89.99
62926;BME280;55732;52.248;-0.844;2023-03-21T00:20:02;100284.41;;;9.86;90.02
62926;BME280;55732;52.248;-0.844;2023-03-21T00:22:39;100278.96;;;9.87;90.00
62926;BME280;55732;52.248;-0.844;2023-03-21T00:25:06;100271.58;;;9.86;89.99
62926;BME280;55732;52.248;-0.844;2023-03-21T00:27:33;100272.80;;;9.87;89.99
62926;BME280;55732;52.248;-0.844;2023-03-21T00:29:59;100269.48;;;9.87;89.84
62926;BME280;55732;52.248;-0.844;2023-03-21T00:32:24;100267.00;;;9.87;90.08
62926;BME280;55732;52.248;-0.844;2023-03-21T00:34:50;100260.15;;;9.86;89.96
62926;BME280;55732;52.248;-0.844;2023-03-21T00:37:17;100260.85;;;9.86;89.89
62926;BME280;55732;52.248;-0.844;2023-03-21T00:39:45;100259.80;;;9.85;89.94
62926;BME280;55732;52.248;-0.844;2023-03-21T00:42:16;100257.69;;;9.83;89.92
62926;BME280;55732;52.248;-0.844;2023-03-21T00:44:43;100256.11;;;9.82;90.02
62926;BME280;55732;52.248;-0.844;2023-03-21T00:47:12;100249.45;;;9.80;90.01
62926;BME280;55732;52.248;-0.844;2023-03-21T00:49:38;100249.29;;;9.77;90.06
62926;BME280;55732;52.248;-0.844;2023-03-21T00:52:06;100249.64;;;9.76;90.18
62926;BME280;55732;52.248;-0.844;2023-03-21T00:54:34;100249.64;;;9.74;90.27
62926;BME280;55732;52.248;-0.844;2023-03-21T00:57:00;100248.41;;;9.73;90.27
62926;BME280;55732;52.248;-0.844;2023-03-21T00:59:27;100248.23;;;9.73;90.28
62926;BME280;55732;52.248;-0.844;2023-03-21T01:01:52;100248.05;;;9.73;90.28
62926;BME280;55732;52.248;-0.844;2023-03-21T01:04:18;100237.69;;;9.72;90.26
62926;BME280;55732;52.248;-0.844;2023-03-21T01:06:46;100236.10;;;9.71;90.20
62926;BME280;55732;52.248;-0.844;2023-03-21T01:09:14;100233.29;;;9.70;90.25
62926;BME280;55732;52.248;-0.844;2023-03-21T01:11:41;100234.00;;;9.69;90.33
62926;BME280;55732;52.248;-0.844;2023-03-21T01:14:07;100227.16;;;9.67;90.34
62926;BME280;55732;52.248;-0.844;2023-03-21T01:16:33;100224.19;;;9.65;90.37
62926;BME280;55732;52.248;-0.844;2023-03-21T01:18:58;100221.02;;;9.63;90.28
62926;BME280;55732;52.248;-0.844;2023-03-21T01:21:25;100220.50;;;9.61;90.39
62926;BME280;55732;52.248;-0.844;2023-03-21T01:23:51;100219.96;;;9.60;90.35
62926;BME280;55732;52.248;-0.844;2023-03-21T01:26:16;100207.85;;;9.57;90.32
62926;BME280;55732;52.248;-0.844;2023-03-21T01:28:42;100202.91;;;9.56;90.51
62926;BME280;55732;52.248;-0.844;2023-03-21T01:31:11;100198.20;;;9.56;90.39
62926;BME280;55732;52.248;-0.844;2023-03-21T01:33:38;100189.95;;;9.54;90.40
62926;BME280;55732;52.248;-0.844;2023-03-21T01:36:04;100187.14;;;9.52;90.41
62926;BME280;55732;52.248;-0.844;2023-03-21T01:38:30;100175.90;;;9.51;90.41
62926;BME280;55732;52.248;-0.844;2023-03-21T01:40:59;100167.98;;;9.49;90.47
62926;BME280;55732;52.248;-0.844;2023-03-21T01:43:34;100173.78;;;9.48;90.47
62926;BME280;55732;52.248;-0.844;2023-03-21T01:52:28;100175.20;;;9.49;90.82
62926;BME280;55732;52.248;-0.844;2023-03-21T01:54:55;100168.70;;;9.50;90.97
62926;BME280;55732;52.248;-0.844;2023-03-21T01:57:27;100162.54;;;9.50;90.99
62926;BME280;55732;52.248;-0.844;2023-03-21T01:59:58;100160.42;;;9.50;90.95
62926;BME280;55732;52.248;-0.844;2023-03-21T02:02:36;100159.90;;;9.50;91.13
62926;BME280;55732;52.248;-0.844;2023-03-21T02:05:25;100166.23;;;9.50;91.14
62926;BME280;55732;52.248;-0.844;2023-03-21T02:07:53;100159.02;;;9.51;91.15
62926;BME280;55732;52.248;-0.844;2023-03-21T02:10:19;100153.76;;;9.52;91.23
62926;BME280;55732;52.248;-0.844;2023-03-21T02:12:44;100149.18;;;9.53;91.18
62926;BME280;55732;52.248;-0.844;2023-03-21T02:15:11;100144.09;;;9.54;91.09
62926;BME280;55732;52.248;-0.844;2023-03-21T02:17:57;100142.32;;;9.55;90.99
62926;BME280;55732;52.248;-0.844;2023-03-21T02:20:49;100131.25;;;9.56;91.06
62926;BME280;55732;52.248;-0.844;2023-03-21T02:29:02;100121.72;;;9.60;90.79
62926;BME280;55732;52.248;-0.844;2023-03-21T02:34:19;100117.50;;;9.62;90.54
62926;BME280;55732;52.248;-0.844;2023-03-21T02:40:09;100108.35;;;9.64;90.35
62926;BME280;55732;52.248;-0.844;2023-03-21T02:42:58;100106.94;;;9.66;90.36
62926;BME280;55732;52.248;-0.844;2023-03-21T02:45:48;100097.95;;;9.67;90.17
62926;BME280;55732;52.248;-0.844;2023-03-21T02:48:29;100096.89;;;9.68;89.97
62926;BME280;55732;52.248;-0.844;2023-03-21T02:50:59;100092.84;;;9.68;89.97
62926;BME280;55732;52.248;-0.844;2023-03-21T02:53:29;100086.88;;;9.68;89.83
62926;BME280;55732;52.248;-0.844;2023-03-21T02:55:56;100083.17;;;9.69;89.77
62926;BME280;55732;52.248;-0.844;2023-03-21T02:58:24;100077.54;;;9.69;89.66
62926;BME280;55732;52.248;-0.844;2023-03-21T03:00:52;100078.07;;;9.69;89.72
62926;BME280;55732;52.248;-0.844;2023-03-21T03:03:21;100072.45;;;9.69;89.72
62926;BME280;55732;52.248;-0.844;2023-03-21T03:05:51;100069.98;;;9.69;89.64
62926;BME280;55732;52.248;-0.844;2023-03-21T03:11:27;100063.48;;;9.68;89.48
62926;BME280;55732;52.248;-0.844;2023-03-21T03:19:29;100065.45;;;9.66;89.31
62926;BME280;55732;52.248;-0.844;2023-03-21T03:22:12;100062.11;;;9.66;89.35
62926;BME280;55732;52.248;-0.844;2023-03-21T03:24:44;100057.19;;;9.66;89.25
62926;BME280;55732;52.248;-0.844;2023-03-21T03:27:26;100052.45;;;9.66;89.25
62926;BME280;55732;52.248;-0.844;2023-03-21T03:29:56;100051.05;;;9.66;89.31
62926;BME280;55732;52.248;-0.844;2023-03-21T03:32:51;100041.37;;;9.66;89.25
62926;BME280;55732;52.248;-0.844;2023-03-21T03:35:19;100036.64;;;9.64;89.32
62926;BME280;55732;52.248;-0.844;2023-03-21T03:37:49;100033.65;;;9.64;89.34
62926;BME280;55732;52.248;-0.844;2023-03-21T03:40:29;100041.20;;;9.63;89.36
62926;BME280;55732;52.248;-0.844;2023-03-21T03:43:04;100039.63;;;9.61;89.37
62926;BME280;55732;52.248;-0.844;2023-03-21T03:45:39;100036.30;;;9.60;89.60
62926;BME280;55732;52.248;-0.844;2023-03-21T03:48:12;100032.08;;;9.61;89.62
62926;BME280;55732;52.248;-0.844;2023-03-21T03:53:48;100027.50;;;9.61;89.64
62926;BME280;55732;52.248;-0.844;2023-03-21T03:56:16;100029.61;;;9.61;89.64
62926;BME280;55732;52.248;-0.844;2023-03-21T03:58:41;100031.55;;;9.59;89.63
62926;BME280;55732;52.248;-0.844;2023-03-21T04:01:07;100031.91;;;9.58;89.63
62926;BME280;55732;52.248;-0.844;2023-03-21T04:03:35;100025.23;;;9.58;89.78
62926;BME280;55732;52.248;-0.844;2023-03-21T04:06:02;100020.14;;;9.58;89.83
62926;BME280;55732;52.248;-0.844;2023-03-21T04:08:28;100016.10;;;9.57;89.82
62926;BME280;55732;52.248;-0.844;2023-03-21T04:10:54;100010.32;;;9.56;89.74
62926;BME280;55732;52.248;-0.844;2023-03-21T04:13:20;100005.92;;;9.55;89.82
62926;BME280;55732;52.248;-0.844;2023-03-21T04:15:46;100010.34;;;9.55;89.90
62926;BME280;55732;52.248;-0.844;2023-03-21T04:18:11;100006.11;;;9.55;89.94
62926;BME280;55732;52.248;-0.844;2023-03-21T04:20:37;100014.20;;;9.54;89.90
62926;BME280;55732;52.248;-0.844;2023-03-21T04:23:03;100010.88;;;9.52;90.01
62926;BME280;55732;52.248;-0.844;2023-03-21T04:25:29;100008.60;;;9.50;89.99
62926;BME280;55732;52.248;-0.844;2023-03-21T04:27:54;100004.73;;;9.50;90.30
62926;BME280;55732;52.248;-0.844;2023-03-21T04:30:20;100004.39;;;9.50;90.46
62926;BME280;55732;52.248;-0.844;2023-03-21T04:32:50;100000.69;;;9.50;90.41
62926;BME280;55732;52.248;-0.844;2023-03-21T04:35:19;100000.52;;;9.50;90.37
62926;BME280;55732;52.248;-0.844;2023-03-21T04:37:45;99997.35;;;9.49;90.42
62926;BME280;55732;52.248;-0.844;2023-03-21T04:40:11;99995.42;;;9.48;90.41
62926;BME280;55732;52.248;-0.844;2023-03-21T04:42:37;99998.05;;;9.48;90.55
62926;BME280;55732;52.248;-0.844;2023-03-21T04:45:03;99997.70;;;9.48;90.77
62926;BME280;55732;52.248;-0.844;2023-03-21T04:47:29;99997.19;;;9.46;90.93
62926;BME280;55732;52.248;-0.844;2023-03-21T04:49:55;99991.91;;;9.45;91.29
62926;BME280;55732;52.248;-0.844;2023-03-21T04:52:21;99988.08;;;9.45;91.20
62926;BME280;55732;52.248;-0.844;2023-03-21T04:54:47;99982.13;;;9.42;91.25
62926;BME280;55732;52.248;-0.844;2023-03-21T04:57:13;99983.01;;;9.40;91.24
62926;BME280;55732;52.248;-0.844;2023-03-21T04:59:38;99981.26;;;9.38;91.59
62926;BME280;55732;52.248;-0.844;2023-03-21T05:02:04;99976.69;;;9.38;91.61
62926;BME280;55732;52.248;-0.844;2023-03-21T05:04:30;99970.89;;;9.37;91.67
62926;BME280;55732;52.248;-0.844;2023-03-21T05:06:56;99967.90;;;9.36;91.64
62926;BME280;55732;52.248;-0.844;2023-03-21T05:09:22;99967.02;;;9.36;91.67
62926;BME280;55732;52.248;-0.844;2023-03-21T05:11:48;99961.24;;;9.35;91.66
62926;BME280;55732;52.248;-0.844;2023-03-21T05:14:17;99956.84;;;9.35;91.64
62926;BME280;55732;52.248;-0.844;2023-03-21T05:16:44;99949.11;;;9.35;91.75
62926;BME280;55732;52.248;-0.844;2023-03-21T05:19:14;99951.05;;;9.35;91.75
62926;BME280;55732;52.248;-0.844;2023-03-21T05:21:40;99953.86;;;9.34;91.68
62926;BME280;55732;52.248;-0.844;2023-03-21T05:24:07;99949.13;;;9.33;91.77
62926;BME280;55732;52.248;-0.844;2023-03-21T05:26:40;99941.75;;;9.33;91.79
62926;BME280;55732;52.248;-0.844;2023-03-21T05:29:06;99938.23;;;9.33;91.81
62926;BME280;55732;52.248;-0.844;2023-03-21T05:31:32;99938.94;;;9.33;91.84
62926;BME280;55732;52.248;-0.844;2023-03-21T05:33:58;99937.52;;;9.33;91.77
62926;BME280;55732;52.248;-0.844;2023-03-21T05:36:23;99941.57;;;9.33;91.95
62926;BME280;55732;52.248;-0.844;2023-03-21T05:38:49;99945.77;;;9.33;91.92
62926;BME280;55732;52.248;-0.844;2023-03-21T05:41:16;99947.90;;;9.33;92.01
62926;BME280;55732;52.248;-0.844;2023-03-21T05:43:42;99947.37;;;9.33;92.07
62926;BME280;55732;52.248;-0.844;2023-03-21T05:46:08;99938.41;;;9.32;91.99
62926;BME280;55732;52.248;-0.844;2023-03-21T05:48:35;99932.45;;;9.32;91.94
62926;BME280;55732;52.248;-0.844;2023-03-21T05:51:01;99930.89;;;9.32;92.02
62926;BME280;55732;52.248;-0.844;2023-03-21T05:53:27;99930.70;;;9.31;92.21
62926;BME280;55732;52.248;-0.844;2023-03-21T05:55:53;99929.48;;;9.30;92.24
62926;BME280;55732;52.248;-0.844;2023-03-21T05:58:18;99936.34;;;9.30;92.28
62926;BME280;55732;52.248;-0.844;2023-03-21T06:00:44;99937.20;;;9.31;92.57
62926;BME280;55732;52.248;-0.844;2023-03-21T06:03:09;99935.43;;;9.32;92.39
62926;BME280;55732;52.248;-0.844;2023-03-21T06:05:35;99935.06;;;9.33;92.33
62926;BME280;55732;52.248;-0.844;2023-03-21T06:08:00;99927.16;;;9.33;92.30
62926;BME280;55732;52.248;-0.844;2023-03-21T06:10:26;99921.37;;;9.33;92.40
62926;BME280;55732;52.248;-0.844;2023-03-21T06:12:51;99924.89;;;9.33;92.44
62926;BME280;55732;52.248;-0.844;2023-03-21T06:15:17;99922.80;;;9.29;92.55
62926;BME280;55732;52.248;-0.844;2023-03-21T06:17:42;99929.80;;;9.33;92.41
62926;BME280;55732;52.248;-0.844;2023-03-21T06:20:09;99924.88;;;9.33;92.53
62926;BME280;55732;52.248;-0.844;2023-03-21T06:22:36;99926.45;;;9.34;92.52
62926;BME280;55732;52.248;-0.844;2023-03-21T06:25:03;99928.04;;;9.33;92.54
62926;BME280;55732;52.248;-0.844;2023-03-21T06:27:30;99928.04;;;9.34;92.69
62926;BME280;55732;52.248;-0.844;2023-03-21T06:29:55;99922.41;;;9.35;92.79
62926;BME280;55732;52.248;-0.844;2023-03-21T06:32:22;99919.08;;;9.36;92.72
62926;BME280;55732;52.248;-0.844;2023-03-21T06:34:48;99923.27;;;9.38;92.64
62926;BME280;55732;52.248;-0.844;2023-03-21T06:37:13;99920.63;;;9.42;92.67
62926;BME280;55732;52.248;-0.844;2023-03-21T06:39:39;99919.52;;;9.45;92.66
62926;BME280;55732;52.248;-0.844;2023-03-21T06:42:04;99923.55;;;9.47;92.52
62926;BME280;55732;52.248;-0.844;2023-03-21T06:44:30;99923.19;;;9.50;92.55
62926;BME280;55732;52.248;-0.844;2023-03-21T06:46:55;99920.89;;;9.52;92.57
62926;BME280;55732;52.248;-0.844;2023-03-21T06:49:21;99926.86;;;9.54;92.55
62926;BME280;55732;52.248;-0.844;2023-03-21T06:51:46;99925.11;;;9.56;92.47
62926;BME280;55732;52.248;-0.844;2023-03-21T06:54:12;99925.58;;;9.58;92.34
62926;BME280;55732;52.248;-0.844;2023-03-21T06:56:39;99927.49;;;9.62;92.51
62926;BME280;55732;52.248;-0.844;2023-03-21T06:59:05;99929.77;;;9.65;92.40
62926;BME280;55732;52.248;-0.844;2023-03-21T07:01:31;99924.29;;;9.67;92.28
62926;BME280;55732;52.248;-0.844;2023-03-21T07:03:56;99911.60;;;9.69;92.09
62926;BME280;55732;52.248;-0.844;2023-03-21T07:06:23;99907.90;;;9.71;92.00
62926;BME280;55732;52.248;-0.844;2023-03-21T07:08:53;99906.66;;;9.72;92.08
62926;BME280;55732;52.248;-0.844;2023-03-21T07:11:20;99910.69;;;9.74;92.11
62926;BME280;55732;52.248;-0.844;2023-03-21T07:13:46;99918.06;;;9.75;91.96
62926;BME280;55732;52.248;-0.844;2023-03-21T07:16:14;99920.52;;;9.76;91.83
62926;BME280;55732;52.248;-0.844;2023-03-21T07:18:40;99918.59;;;9.77;91.78
62926;BME280;55732;52.248;-0.844;2023-03-21T07:21:06;99915.60;;;9.77;91.78
62926;BME280;55732;52.248;-0.844;2023-03-21T07:23:31;99915.07;;;9.78;91.94
62926;BME280;55732;52.248;-0.844;2023-03-21T07:25:56;99907.97;;;9.83;91.98
62926;BME280;55732;52.248;-0.844;2023-03-21T07:28:22;99905.65;;;9.87;91.84
62926;BME280;55732;52.248;-0.844;2023-03-21T07:30:56;99907.92;;;9.90;91.61
62926;BME280;55732;52.248;-0.844;2023-03-21T07:33:23;99905.94;;;9.93;91.53
62926;BME280;55732;52.248;-0.844;2023-03-21T07:35:50;99901.16;;;9.97;91.49
62926;BME280;55732;52.248;-0.844;2023-03-21T07:38:17;99897.42;;;10.01;91.34
62926;BME280;55732;52.248;-0.844;2023-03-21T07:40:43;99889.27;;;10.08;91.24
62926;BME280;55732;52.248;-0.844;2023-03-21T07:43:09;99892.66;;;10.22;90.87
62926;BME280;55732;52.248;-0.844;2023-03-21T07:45:35;99898.85;;;10.50;90.30
62926;BME280;55732;52.248;-0.844;2023-03-21T07:48:00;99903.09;;;10.63;89.95
62926;BME280;55732;52.248;-0.844;2023-03-21T07:50:26;99899.25;;;10.61;89.73
62926;BME280;55732;52.248;-0.844;2023-03-21T07:52:51;99896.12;;;10.59;89.70
62926;BME280;55732;52.248;-0.844;2023-03-21T07:55:18;99895.43;;;10.57;89.75
62926;BME280;55732;52.248;-0.844;2023-03-21T07:57:44;99897.70;;;10.59;89.62
62926;BME280;55732;52.248;-0.844;2023-03-21T08:00:10;99898.88;;;10.62;89.59
62926;BME280;55732;52.248;-0.844;2023-03-21T08:02:36;99901.64;;;10.66;89.46
62926;BME280;55732;52.248;-0.844;2023-03-21T08:05:03;99906.77;;;10.66;89.34
62926;BME280;55732;52.248;-0.844;2023-03-21T08:07:29;99907.05;;;10.70;89.33
62926;BME280;55732;52.248;-0.844;2023-03-21T08:09:55;99912.39;;;10.79;89.32
62926;BME280;55732;52.248;-0.844;2023-03-21T08:12:20;99921.40;;;10.93;89.19
62926;BME280;55732;52.248;-0.844;2023-03-21T08:14:46;99916.91;;;10.98;88.89
62926;BME280;55732;52.248;-0.844;2023-03-21T08:17:11;99917.23;;;11.13;88.39
62926;BME280;55732;52.248;-0.844;2023-03-21T08:19:37;99912.33;;;11.46;87.70
62926;BME280;55732;52.248;-0.844;2023-03-21T08:22:03;99907.94;;;11.55;87.10
62926;BME280;55732;52.248;-0.844;2023-03-21T08:24:31;99900.66;;;11.57;86.96
62926;BME280;55732;52.248;-0.844;2023-03-21T08:26:59;99899.77;;;11.71;86.80
62926;BME280;55732;52.248;-0.844;2023-03-21T08:29:25;99899.83;;;11.98;86.16
62926;BME280;55732;52.248;-0.844;2023-03-21T08:31:51;99901.02;;;12.21;85.60
62926;BME280;55732;52.248;-0.844;2023-03-21T08:34:16;99900.30;;;12.31;84.87
62926;BME280;55732;52.248;-0.844;2023-03-21T08:36:44;99896.45;;;12.55;84.35
62926;BME280;55732;52.248;-0.844;2023-03-21T08:39:11;99895.83;;;12.85;83.78
62926;BME280;55732;52.248;-0.844;2023-03-21T08:41:37;99890.94;;;13.42;82.72
62926;BME280;55732;52.248;-0.844;2023-03-21T08:44:04;99893.07;;;14.66;79.86
62926;BME280;55732;52.248;-0.844;2023-03-21T08:46:30;99882.80;;;14.60;79.38
62926;BME280;55732;52.248;-0.844;2023-03-21T08:48:56;99858.01;;;15.58;77.65
62926;BME280;55732;52.248;-0.844;2023-03-21T08:51:21;99863.27;;;18.36;71.05
62926;BME280;55732;52.248;-0.844;2023-03-21T08:53:47;99855.44;;;20.57;66.65
62926;BME280;55732;52.248;-0.844;2023-03-21T08:56:16;99852.67;;;22.47;63.18
62926;BME280;55732;52.248;-0.844;2023-03-21T08:58:41;99854.45;;;23.06;61.30
62926;BME280;55732;52.248;-0.844;2023-03-21T09:01:07;99856.95;;;22.66;60.96
62926;BME280;55732;52.248;-0.844;2023-03-21T09:03:36;99856.70;;;21.51;61.28
62926;BME280;55732;52.248;-0.844;2023-03-21T09:06:03;99863.67;;;20.34;61.53
62926;BME280;55732;52.248;-0.844;2023-03-21T09:08:28;99869.69;;;19.22;62.83
62926;BME280;55732;52.248;-0.844;2023-03-21T09:10:54;99867.05;;;18.24;63.72
62926;BME280;55732;52.248;-0.844;2023-03-21T09:13:20;99870.96;;;17.31;65.25
62926;BME280;55732;52.248;-0.844;2023-03-21T09:15:46;99880.13;;;16.55;66.53
62926;BME280;55732;52.248;-0.844;2023-03-21T09:18:12;99879.58;;;15.90;67.73
62926;BME280;55732;52.248;-0.844;2023-03-21T09:20:40;99878.11;;;15.32;69.04
62926;BME280;55732;52.248;-0.844;2023-03-21T09:23:08;99880.27;;;14.85;70.45
62926;BME280;55732;52.248;-0.844;2023-03-21T09:25:35;99883.99;;;14.48;71.68
62926;BME280;55732;52.248;-0.844;2023-03-21T09:28:01;99883.73;;;14.12;72.63
62926;BME280;55732;52.248;-0.844;2023-03-21T09:30:32;99883.78;;;13.84;73.64
62926;BME280;55732;52.248;-0.844;2023-03-21T09:33:03;99884.33;;;13.62;74.57
62926;BME280;55732;52.248;-0.844;2023-03-21T09:35:33;99882.08;;;13.47;75.53
62926;BME280;55732;52.248;-0.844;2023-03-21T09:37:59;99884.30;;;13.35;76.11
62926;BME280;55732;52.248;-0.844;2023-03-21T09:40:37;99887.33;;;13.19;76.71
62926;BME280;55732;52.248;-0.844;2023-03-21T09:48:49;99876.50;;;12.96;78.70
62926;BME280;55732;52.248;-0.844;2023-03-21T09:51:19;99866.87;;;12.99;79.09
62926;BME280;55732;52.248;-0.844;2023-03-21T09:53:46;99855.02;;;13.30;78.99
62926;BME280;55732;52.248;-0.844;2023-03-21T09:56:14;99850.90;;;14.28;77.71
62926;BME280;55732;52.248;-0.844;2023-03-21T09:58:45;99846.86;;;15.21;76.01
62926;BME280;55732;52.248;-0.844;2023-03-21T10:01:20;99842.09;;;15.65;74.87
62926;BME280;55732;52.248;-0.844;2023-03-21T10:03:55;99838.50;;;16.27;73.36
62926;BME280;55732;52.248;-0.844;2023-03-21T10:06:25;99841.23;;;16.35;72.70
62926;BME280;55732;52.248;-0.844;2023-03-21T10:09:06;99835.05;;;16.29;72.53
62926;BME280;55732;52.248;-0.844;2023-03-21T10:14:30;99821.04;;;16.52;71.63
62926;BME280;55732;52.248;-0.844;2023-03-21T10:17:30;99808.94;;;16.39;71.47
62926;BME280;55732;52.248;-0.844;2023-03-21T10:20:22;99808.52;;;16.40;71.54
62926;BME280;55732;52.248;-0.844;2023-03-21T10:22:48;99805.13;;;16.69;70.68
62926;BME280;55732;52.248;-0.844;2023-03-21T10:25:17;99805.69;;;16.87;70.56
62926;BME280;55732;52.248;-0.844;2023-03-21T10:27:44;99803.98;;;17.11;70.30
62926;BME280;55732;52.248;-0.844;2023-03-21T10:30:30;99795.48;;;17.27;69.77
62926;BME280;55732;52.248;-0.844;2023-03-21T10:33:00;99797.97;;;17.11;68.96
62926;BME280;55732;52.248;-0.844;2023-03-21T10:35:30;99797.16;;;16.78;69.08
62926;BME280;55732;52.248;-0.844;2023-03-21T10:37:59;99793.95;;;17.26;67.91
62926;BME280;55732;52.248;-0.844;2023-03-21T10:40:26;99800.81;;;17.71;67.47
62926;BME280;55732;52.248;-0.844;2023-03-21T10:42:55;99801.88;;;17.99;66.99
62926;BME280;55732;52.248;-0.844;2023-03-21T10:45:22;99801.64;;;18.01;66.85
62926;BME280;55732;52.248;-0.844;2023-03-21T10:47:49;99798.01;;;18.53;65.25
62926;BME280;55732;52.248;-0.844;2023-03-21T10:50:18;99800.80;;;18.55;64.97
62926;BME280;55732;52.248;-0.844;2023-03-21T10:52:54;99809.81;;;18.10;65.56
62926;BME280;55732;52.248;-0.844;2023-03-21T10:55:32;99801.34;;;17.63;65.60
62926;BME280;55732;52.248;-0.844;2023-03-21T11:00:33;99782.98;;;17.38;66.26
62926;BME280;55732;52.248;-0.844;2023-03-21T11:03:00;99779.36;;;17.47;66.47
62926;BME280;55732;52.248;-0.844;2023-03-21T11:05:38;99781.11;;;17.44;66.58
62926;BME280;55732;52.248;-0.844;2023-03-21T11:08:10;99779.08;;;17.24;66.59
62926;BME280;55732;52.248;-0.844;2023-03-21T11:13:26;99786.51;;;16.63;67.71
62926;BME280;55732;52.248;-0.844;2023-03-21T11:16:24;99787.86;;;16.32;68.08
62926;BME280;55732;52.248;-0.844;2023-03-21T11:18:50;99781.92;;;16.05;68.54
62926;BME280;55732;52.248;-0.844;2023-03-21T11:21:16;99781.70;;;15.77;68.86
62926;BME280;55732;52.248;-0.844;2023-03-21T11:23:47;99780.64;;;15.67;69.54
62926;BME280;55732;52.248;-0.844;2023-03-21T11:26:21;99780.71;;;15.70;69.62
62926;BME280;55732;52.248;-0.844;2023-03-21T11:28:50;99780.41;;;15.73;69.68
62926;BME280;55732;52.248;-0.844;2023-03-21T11:31:16;99777.38;;;15.83;69.76
62926;BME280;55732;52.248;-0.844;2023-03-21T11:33:51;99780.16;;;15.91;69.19
62926;BME280;55732;52.248;-0.844;2023-03-21T11:38:48;99780.09;;;16.07;68.33
62926;BME280;55732;52.248;-0.844;2023-03-21T11:41:30;99786.30;;;16.12;67.97
62926;BME280;55732;52.248;-0.844;2023-03-21T11:43:57;99788.94;;;16.22;67.59
62926;BME280;55732;52.248;-0.844;2023-03-21T11:46:25;99792.30;;;16.41;67.57
62926;BME280;55732;52.248;-0.844;2023-03-21T11:48:51;99794.41;;;16.56;65.95
62926;BME280;55732;52.248;-0.844;2023-03-21T11:53:58;99793.25;;;16.73;65.56
62926;BME280;55732;52.248;-0.844;2023-03-21T11:56:37;99791.94;;;16.88;64.95
62926;BME280;55732;52.248;-0.844;2023-03-21T11:59:42;99790.46;;;16.94;64.43
62926;BME280;55732;52.248;-0.844;2023-03-21T12:05:17;99789.66;;;16.60;64.07
62926;BME280;55732;52.248;-0.844;2023-03-21T12:10:52;99785.36;;;16.28;64.83
62926;BME280;55732;52.248;-0.844;2023-03-21T12:37:17;99765.92;;;16.53;62.20
62926;BME280;55732;52.248;-0.844;2023-03-21T12:39:49;99767.83;;;16.58;61.54
62926;BME280;55732;52.248;-0.844;2023-03-21T12:45:11;99762.10;;;16.60;60.61
62926;BME280;55732;52.248;-0.844;2023-03-21T12:47:41;99760.35;;;16.65;60.80
62926;BME280;55732;52.248;-0.844;2023-03-21T12:52:56;99745.52;;;16.98;60.81
62926;BME280;55732;52.248;-0.844;2023-03-21T12:55:26;99739.19;;;16.95;60.73
62926;BME280;55732;52.248;-0.844;2023-03-21T12:58:10;99740.94;;;16.88;60.33
62926;BME280;55732;52.248;-0.844;2023-03-21T13:00:43;99735.91;;;16.84;60.55
62926;BME280;55732;52.248;-0.844;2023-03-21T13:03:17;99734.33;;;16.79;60.51
62926;BME280;55732;52.248;-0.844;2023-03-21T13:06:04;99738.15;;;16.64;60.42
62926;BME280;55732;52.248;-0.844;2023-03-21T13:08:36;99733.06;;;16.57;60.36
62926;BME280;55732;52.248;-0.844;2023-03-21T13:11:04;99733.34;;;16.50;60.62
62926;BME280;55732;52.248;-0.844;2023-03-21T13:13:46;99731.22;;;16.45;60.73
62926;BME280;55732;52.248;-0.844;2023-03-21T13:16:46;99723.15;;;16.60;60.87
62926;BME280;55732;52.248;-0.844;2023-03-21T13:19:28;99718.27;;;16.94;60.47
62926;BME280;55732;52.248;-0.844;2023-03-21T13:28:18;99723.57;;;17.54;59.34
62926;BME280;55732;52.248;-0.844;2023-03-21T13:30:37;99724.36;;;17.69;58.24
62926;BME280;55732;52.248;-0.844;2023-03-21T13:33:15;99729.05;;;17.67;58.50
62926;BME280;55732;52.248;-0.844;2023-03-21T13:35:43;99727.21;;;17.60;58.47
62926;BME280;55732;52.248;-0.844;2023-03-21T13:38:19;99721.52;;;17.30;58.25
62926;BME280;55732;52.248;-0.844;2023-03-21T13:40:50;99729.08;;;17.03;58.79
62926;BME280;55732;52.248;-0.844;2023-03-21T13:45:55;99728.30;;;16.75;59.83
62926;BME280;55732;52.248;-0.844;2023-03-21T13:48:31;99731.30;;;16.66;60.36
62926;BME280;55732;52.248;-0.844;2023-03-21T13:51:05;99723.52;;;16.78;60.81
62926;BME280;55732;52.248;-0.844;2023-03-21T13:53:41;99717.52;;;16.95;60.44
62926;BME280;55732;52.248;-0.844;2023-03-21T13:56:23;99715.33;;;17.09;60.33
62926;BME280;55732;52.248;-0.844;2023-03-21T13:58:52;99713.73;;;17.21;60.42
62926;BME280;55732;52.248;-0.844;2023-03-21T14:01:38;99714.56;;;17.31;59.92
62926;BME280;55732;52.248;-0.844;2023-03-21T14:06:52;99708.70;;;17.35;58.50
62926;BME280;55732;52.248;-0.844;2023-03-21T14:09:40;99710.11;;;17.44;58.34
62926;BME280;55732;52.248;-0.844;2023-03-21T14:12:12;99710.51;;;17.43;57.74
62926;BME280;55732;52.248;-0.844;2023-03-21T14:14:45;99709.02;;;17.24;57.38
62926;BME280;55732;52.248;-0.844;2023-03-21T14:17:34;99709.80;;;17.01;57.61
62926;BME280;55732;52.248;-0.844;2023-03-21T14:20:14;99718.33;;;16.75;58.09
62926;BME280;55732;52.248;-0.844;2023-03-21T14:22:45;99732.48;;;16.54;58.05
62926;BME280;55732;52.248;-0.844;2023-03-21T14:25:12;99727.45;;;16.41;57.88
62926;BME280;55732;52.248;-0.844;2023-03-21T14:27:42;99729.67;;;16.34;57.91
62926;BME280;55732;52.248;-0.844;2023-03-21T14:30:20;99738.04;;;16.20;57.83
62926;BME280;55732;52.248;-0.844;2023-03-21T14:32:47;99745.00;;;16.19;57.41
62926;BME280;55732;52.248;-0.844;2023-03-21T14:35:13;99741.95;;;16.20;56.76
62926;BME280;55732;52.248;-0.844;2023-03-21T14:37:42;99740.55;;;16.29;56.52
62926;BME280;55732;52.248;-0.844;2023-03-21T14:40:23;99741.42;;;16.43;56.23